Time;durP1;ratioP1;P1;durP2;ratioP2;P2;SDS_P1;SDS_P2;PMS_P1;PMS_P2;Temp;Humidity;BMP_temperature;BMP_pressure;BME280_temperature;BME280_humidity;BME280_pressure;Samples;Min_cycle;Max_cycle;Signal;HPM_P1;HPM_P2
2022/01/24 00:00:49;;;;;;;;;;;-2.00;89.90;;;;;;5059791;28;19998;-79
2022/01/24 00:03:15;;;;;;;;;;;-2.80;89.80;;;;;;5059913;28;20298;-79
2022/01/24 00:05:41;;;;;;;;;;;-2.80;88.40;;;;;;5058936;28;19912;-79
2022/01/24 00:08:07;;;;;;;;;;;-4.60;87.40;;;;;;5060770;28;19913;-79
2022/01/24 00:10:35;;;;;;;;;;;-2.40;88.70;;;;;;5059653;28;19904;-79
2022/01/24 00:26:53;;;;;;;;;;;-2.80;90.70;;;;;;5067868;28;19916;-79
2022/01/24 00:29:22;;;;;;;;;;;-2.70;91.00;;;;;;5063450;28;20096;-79
2022/01/24 00:31:48;;;;;;;;;;;-2.00;91.20;;;;;;5060889;28;19904;-79
2022/01/24 00:34:14;;;;;;;;;;;-2.70;91.20;;;;;;5059896;28;19935;-80
2022/01/24 00:36:40;;;;;;;;;;;-2.80;91.30;;;;;;5059406;28;20406;-79
2022/01/24 00:39:06;;;;;;;;;;;-1.90;91.60;;;;;;5057827;28;19912;-79
2022/01/24 00:41:41;;;;;;;;;;;-2.40;91.40;;;;;;5057682;28;20120;-79
2022/01/24 00:46:37;;;;;;;;;;;-2.60;91.30;;;;;;5059109;28;19908;-79
2022/01/24 00:57:33;;;;;;;;;;;-1.70;91.00;;;;;;5064176;28;19922;-79
2022/01/24 01:00:01;;;;;;;;;;;-2.10;91.10;;;;;;5062986;28;19939;-79
2022/01/24 01:02:27;;;;;;;;;;;-4.30;91.60;;;;;;5062149;28;20265;-79
2022/01/24 01:05:11;;;;;;;;;;;-0.60;91.60;;;;;;5061251;28;19912;-78
2022/01/24 01:07:51;;;;;;;;;;;-1.90;91.70;;;;;;5061087;28;20146;-79
2022/01/24 01:18:45;;;;;;;;;;;-1.50;90.00;;;;;;5018867;28;20200;-79
2022/01/24 01:21:12;;;;;;;;;;;-2.70;89.40;;;;;;5002126;28;20301;-79
2022/01/24 01:23:41;;;;;;;;;;;-0.30;90.10;;;;;;5018390;28;19905;-79
2022/01/24 01:26:15;;;;;;;;;;;-2.70;89.30;;;;;;5018434;28;20197;-79
2022/01/24 01:28:44;;;;;;;;;;;-2.70;89.00;;;;;;5019034;28;19908;-79
2022/01/24 01:31:18;;;;;;;;;;;-2.70;89.50;;;;;;5018708;28;20570;-79
2022/01/24 01:36:17;;;;;;;;;;;-2.60;89.30;;;;;;5018160;28;20153;-80
2022/01/24 01:52:46;;;;;;;;;;;-2.70;89.60;;;;;;5053523;28;19911;-80
2022/01/24 01:57:56;;;;;;;;;;;-2.80;89.20;;;;;;5081171;28;19978;-79
2022/01/24 02:00:21;;;;;;;;;;;-2.80;90.00;;;;;;5080441;28;19904;-79
2022/01/24 02:02:47;;;;;;;;;;;-2.20;90.00;;;;;;5063159;28;19904;-79
2022/01/24 02:05:13;;;;;;;;;;;-2.90;89.50;;;;;;5081035;28;20390;-79
2022/01/24 02:07:46;;;;;;;;;;;-2.90;89.90;;;;;;5081057;28;19911;-79
2022/01/24 02:10:12;;;;;;;;;;;-2.90;90.00;;;;;;5081661;28;19955;-79
2022/01/24 02:12:37;;;;;;;;;;;-0.80;90.80;;;;;;5081600;28;19951;-79
2022/01/24 02:15:03;;;;;;;;;;;-2.90;90.00;;;;;;5082048;28;19915;-80
2022/01/24 02:20:27;;;;;;;;;;;-2.80;90.20;;;;;;5081428;28;19904;-80
2022/01/24 02:23:17;;;;;;;;;;;-2.80;90.60;;;;;;5081731;28;19904;-79
2022/01/24 02:25:38;;;;;;;;;;;-2.80;90.50;;;;;;5081444;28;19967;-79
2022/01/24 02:28:05;;;;;;;;;;;-1.10;91.10;;;;;;5081702;28;20007;-79
2022/01/24 02:33:09;;;;;;;;;;;-1.70;91.00;;;;;;5081793;28;19943;-80
2022/01/24 02:35:35;;;;;;;;;;;-2.80;90.90;;;;;;5082178;28;19908;-80
2022/01/24 02:38:05;;;;;;;;;;;-1.80;91.10;;;;;;5081957;28;20026;-79
2022/01/24 02:40:32;;;;;;;;;;;-2.80;90.60;;;;;;5047849;28;19912;-79
2022/01/24 02:48:22;;;;;;;;;;;-2.70;90.80;;;;;;5086209;28;19918;-79
2022/01/24 02:48:46;;;;;;;;;;;-2.80;90.80;;;;;;5081705;28;19904;-79
2022/01/24 02:54:15;;;;;;;;;;;-2.80;90.60;;;;;;5017877;28;20017;-79
2022/01/24 02:56:41;;;;;;;;;;;-2.80;90.90;;;;;;5016912;28;19982;-79
2022/01/24 02:59:06;;;;;;;;;;;-2.80;90.90;;;;;;5017473;28;19921;-79
2022/01/24 03:01:32;;;;;;;;;;;-2.70;90.90;;;;;;5016799;28;20410;-80
2022/01/24 03:03:57;;;;;;;;;;;-2.00;91.30;;;;;;5017449;28;19905;-80
2022/01/24 03:06:23;;;;;;;;;;;-2.80;91.10;;;;;;5017006;28;20056;-79
2022/01/24 03:08:49;;;;;;;;;;;-0.80;91.20;;;;;;5017401;28;20311;-79
2022/01/24 03:11:15;;;;;;;;;;;-2.80;91.10;;;;;;5017523;28;19912;-79
2022/01/24 03:13:42;;;;;;;;;;;-2.80;91.30;;;;;;5018609;28;19932;-79
2022/01/24 03:16:08;;;;;;;;;;;-2.80;91.60;;;;;;5021283;28;19937;-79
2022/01/24 03:18:36;;;;;;;;;;;-2.00;91.60;;;;;;5025007;28;19956;-81
2022/01/24 03:21:02;;;;;;;;;;;-2.70;91.00;;;;;;5019762;28;20175;-79
2022/01/24 03:23:29;;;;;;;;;;;-2.70;91.10;;;;;;5024059;28;20239;-79
2022/01/24 03:25:55;;;;;;;;;;;-2.70;91.40;;;;;;5025868;28;19916;-79
2022/01/24 03:28:21;;;;;;;;;;;-2.70;90.80;;;;;;5018990;28;19995;-80
2022/01/24 03:30:46;;;;;;;;;;;-3.00;90.70;;;;;;5043800;28;19905;-78
2022/01/24 03:33:12;;;;;;;;;;;-2.90;91.10;;;;;;5059688;28;20208;-79
2022/01/24 03:35:40;;;;;;;;;;;-2.80;91.40;;;;;;5060574;28;19912;-79
2022/01/24 03:38:06;;;;;;;;;;;-2.80;91.60;;;;;;5060156;28;19924;-79
2022/01/24 03:40:32;;;;;;;;;;;-1.80;91.60;;;;;;5059331;28;19914;-80
2022/01/24 03:43:00;;;;;;;;;;;-2.90;91.20;;;;;;5057986;28;19943;-79
2022/01/24 03:45:44;;;;;;;;;;;-3.00;91.40;;;;;;5060079;28;19908;-79
2022/01/24 03:48:25;;;;;;;;;;;-2.90;91.40;;;;;;5060048;28;19939;-80
2022/01/24 03:50:51;;;;;;;;;;;-2.80;91.60;;;;;;5059416;28;19905;-78
2022/01/24 03:53:16;;;;;;;;;;;-2.80;91.80;;;;;;5057887;28;20547;-79
2022/01/24 03:55:42;;;;;;;;;;;-2.80;91.60;;;;;;5059281;28;20244;-79
2022/01/24 03:58:07;;;;;;;;;;;-2.80;91.60;;;;;;5059217;28;20390;-79
2022/01/24 04:00:33;;;;;;;;;;;-2.80;91.40;;;;;;5059268;28;20177;-79
2022/01/24 04:02:59;;;;;;;;;;;-2.80;91.70;;;;;;5059301;28;19915;-80
2022/01/24 04:05:25;;;;;;;;;;;-2.90;92.40;;;;;;5059248;28;19908;-79
2022/01/24 04:07:50;;;;;;;;;;;-2.70;91.50;;;;;;5058029;28;19974;-79
2022/01/24 04:10:19;;;;;;;;;;;-2.90;91.40;;;;;;5059331;28;19905;-78
2022/01/24 04:12:44;;;;;;;;;;;-1.90;91.90;;;;;;5067345;28;20365;-79
2022/01/24 04:15:27;;;;;;;;;;;-2.80;91.60;;;;;;5079765;28;19954;-79
2022/01/24 04:23:33;;;;;;;;;;;-2.90;91.00;;;;;;5081035;28;20417;-80
2022/01/24 04:25:59;;;;;;;;;;;-2.90;90.90;;;;;;5065167;28;19919;-79
2022/01/24 04:28:24;;;;;;;;;;;-2.50;90.80;;;;;;5084308;28;20123;-79
2022/01/24 04:30:50;;;;;;;;;;;-2.20;91.00;;;;;;5066728;28;19911;-79
2022/01/24 04:33:16;;;;;;;;;;;-2.50;91.40;;;;;;5066193;28;19931;-80
2022/01/24 04:35:41;;;;;;;;;;;-2.90;91.50;;;;;;5084509;28;19915;-79
2022/01/24 04:38:07;;;;;;;;;;;-2.90;91.50;;;;;;5066146;28;19920;-79
2022/01/24 04:40:32;;;;;;;;;;;-2.80;91.40;;;;;;5084712;28;19957;-79
2022/01/24 04:43:18;;;;;;;;;;;-2.90;91.30;;;;;;5084504;28;20402;-79
2022/01/24 04:46:07;;;;;;;;;;;-2.70;91.30;;;;;;5084860;28;19908;-79
2022/01/24 04:54:04;;;;;;;;;;;-3.00;91.60;;;;;;5085073;28;19904;-78
2022/01/24 04:56:29;;;;;;;;;;;-3.00;91.20;;;;;;5084537;28;19915;-80
2022/01/24 04:58:55;;;;;;;;;;;-3.00;91.60;;;;;;5090860;28;20181;-79
2022/01/24 05:01:21;;;;;;;;;;;-3.00;91.90;;;;;;5087963;28;20120;-79
2022/01/24 05:03:46;;;;;;;;;;;-3.00;91.70;;;;;;5065560;28;20200;-79
2022/01/24 05:06:12;;;;;;;;;;;-2.90;91.70;;;;;;5065942;28;20338;-79
2022/01/24 05:08:37;;;;;;;;;;;-3.50;91.50;;;;;;5083281;28;20166;-79
2022/01/24 05:11:08;;;;;;;;;;;-1.40;91.90;;;;;;5082871;28;20188;-79
2022/01/24 05:24:30;;;;;;;;;;;-3.10;91.90;;;;;;5092907;28;20517;-79
2022/01/24 05:26:56;;;;;;;;;;;-2.10;91.80;;;;;;5092583;28;20039;-79
2022/01/24 05:29:22;;;;;;;;;;;-3.10;91.60;;;;;;5091219;28;19969;-80
2022/01/24 05:31:47;;;;;;;;;;;-3.10;92.00;;;;;;5085635;28;19911;-79
2022/01/24 05:34:13;;;;;;;;;;;-3.10;92.10;;;;;;5083345;28;19986;-79
2022/01/24 05:36:40;;;;;;;;;;;-3.10;91.70;;;;;;5065244;28;19916;-79
2022/01/24 05:39:06;;;;;;;;;;;-3.00;92.00;;;;;;5083374;28;19922;-80
2022/01/24 05:41:32;;;;;;;;;;;-3.00;91.90;;;;;;5083502;28;19998;-79
2022/01/24 05:43:58;;;;;;;;;;;-3.10;91.90;;;;;;5065250;28;20189;-79
2022/01/24 05:46:24;;;;;;;;;;;-3.00;91.90;;;;;;5083584;28;20024;-79
2022/01/24 05:48:49;;;;;;;;;;;-3.10;92.10;;;;;;5083989;28;19935;-79
2022/01/24 05:51:15;;;;;;;;;;;-2.60;91.80;;;;;;5064716;28;20448;-79
2022/01/24 05:53:40;;;;;;;;;;;-1.70;92.30;;;;;;5083098;28;20166;-79
2022/01/24 05:56:06;;;;;;;;;;;-1.90;92.20;;;;;;5064589;28;19911;-79
2022/01/24 05:58:31;;;;;;;;;;;-3.10;92.00;;;;;;5083285;28;19962;-79
2022/01/24 06:00:57;;;;;;;;;;;-3.10;91.70;;;;;;5082701;28;19904;-80
2022/01/24 06:03:23;;;;;;;;;;;-2.30;92.20;;;;;;5082869;28;20294;-79
2022/01/24 06:05:49;;;;;;;;;;;-1.20;92.50;;;;;;5065077;28;20029;-79
2022/01/24 06:08:14;;;;;;;;;;;-2.50;91.90;;;;;;5084087;28;19916;-80
2022/01/24 06:10:40;;;;;;;;;;;-3.10;91.90;;;;;;5091142;28;20398;-80
2022/01/24 06:13:07;;;;;;;;;;;-3.10;92.10;;;;;;5065676;28;19920;-79
2022/01/24 06:15:34;;;;;;;;;;;-2.80;92.30;;;;;;5069294;28;20096;-79
2022/01/24 06:18:05;;;;;;;;;;;-3.00;91.80;;;;;;5064023;28;20414;-80
2022/01/24 06:20:31;;;;;;;;;;;-2.40;92.00;;;;;;5061654;28;19908;-79
2022/01/24 06:23:00;;;;;;;;;;;-3.00;91.90;;;;;;5060829;28;19999;-79
2022/01/24 06:25:28;;;;;;;;;;;-3.00;92.30;;;;;;5061556;28;19956;-80
2022/01/24 06:27:53;;;;;;;;;;;-3.00;92.20;;;;;;5061290;28;20299;-79
2022/01/24 06:30:19;;;;;;;;;;;-3.10;91.80;;;;;;5060853;28;19941;-79
2022/01/24 06:32:46;;;;;;;;;;;-3.10;92.10;;;;;;5060472;28;19904;-80
2022/01/24 06:35:12;;;;;;;;;;;-3.50;92.10;;;;;;5060364;28;20009;-80
2022/01/24 06:37:39;;;;;;;;;;;-1.70;92.60;;;;;;5058942;28;19931;-79
2022/01/24 06:40:09;;;;;;;;;;;-3.10;92.10;;;;;;5059641;28;19904;-79
2022/01/24 06:42:35;;;;;;;;;;;-3.10;92.20;;;;;;5060113;28;20021;-79
2022/01/24 06:45:01;;;;;;;;;;;-3.00;92.20;;;;;;5058591;28;19908;-79
2022/01/24 06:47:26;;;;;;;;;;;-3.00;91.90;;;;;;5060050;28;20248;-79
2022/01/24 06:49:52;;;;;;;;;;;-3.00;91.80;;;;;;5060366;28;19905;-79
2022/01/24 06:52:18;;;;;;;;;;;-2.90;92.40;;;;;;5059816;28;19943;-79
2022/01/24 06:54:44;;;;;;;;;;;-0.90;93.10;;;;;;5059933;28;20146;-80
2022/01/24 06:57:13;;;;;;;;;;;-3.00;92.50;;;;;;5060758;28;19908;-80
2022/01/24 06:59:42;;;;;;;;;;;-2.50;92.70;;;;;;5061121;28;19935;-79
2022/01/24 07:02:08;;;;;;;;;;;-3.00;92.10;;;;;;5061231;28;20177;-80
2022/01/24 07:04:36;;;;;;;;;;;-3.10;92.30;;;;;;5061363;28;20481;-79
2022/01/24 07:07:03;;;;;;;;;;;-3.10;92.50;;;;;;5061650;28;19905;-79
2022/01/24 07:09:29;;;;;;;;;;;-3.00;92.40;;;;;;5060429;28;19912;-79
2022/01/24 07:11:54;;;;;;;;;;;-3.00;92.40;;;;;;5061380;28;20081;-79
2022/01/24 07:14:20;;;;;;;;;;;-3.00;92.30;;;;;;5081065;28;19963;-79
2022/01/24 07:19:21;;;;;;;;;;;-2.80;92.40;;;;;;5085109;28;19904;-79
2022/01/24 07:21:46;;;;;;;;;;;-1.60;92.20;;;;;;5081216;28;19908;-80
2022/01/24 07:24:12;;;;;;;;;;;-2.80;92.10;;;;;;5080940;28;19904;-80
2022/01/24 07:26:38;;;;;;;;;;;-2.90;92.20;;;;;;5080232;28;19939;-80
2022/01/24 07:29:03;;;;;;;;;;;-2.90;91.90;;;;;;5080573;28;19985;-79
2022/01/24 07:31:29;;;;;;;;;;;-2.80;92.40;;;;;;5080269;28;19904;-79
2022/01/24 07:33:55;;;;;;;;;;;-2.70;92.40;;;;;;5079952;28;20185;-79
2022/01/24 07:36:22;;;;;;;;;;;-2.60;92.70;;;;;;5079440;28;19915;-80
2022/01/24 07:38:47;;;;;;;;;;;-2.50;91.90;;;;;;5079934;28;19912;-79
2022/01/24 07:41:16;;;;;;;;;;;-2.10;91.40;;;;;;5061030;28;20297;-79
2022/01/24 07:43:42;;;;;;;;;;;-5.10;90.20;;;;;;5079616;28;20279;-79
2022/01/24 07:46:08;;;;;;;;;;;-2.50;88.50;;;;;;5079895;28;20044;-80
2022/01/24 07:48:33;;;;;;;;;;;-2.50;86.60;;;;;;5079884;28;20188;-80
2022/01/24 07:50:59;;;;;;;;;;;-2.20;84.90;;;;;;5078264;28;20383;-79
2022/01/24 07:53:25;;;;;;;;;;;-2.20;84.40;;;;;;5079693;28;19904;-79
2022/01/24 07:55:50;;;;;;;;;;;-2.30;77.10;;;;;;5079732;28;19911;-80
2022/01/24 07:58:16;;;;;;;;;;;-2.50;74.80;;;;;;5062542;28;20109;-80
2022/01/24 08:00:42;;;;;;;;;;;-0.60;77.00;;;;;;5084007;28;19904;-79
2022/01/24 08:03:09;;;;;;;;;;;-2.30;73.30;;;;;;5084029;28;19997;-80
2022/01/24 08:05:35;;;;;;;;;;;-2.50;72.00;;;;;;5083718;28;20112;-79
2022/01/24 08:08:01;;;;;;;;;;;-2.50;71.70;;;;;;5083794;28;19915;-80
2022/01/24 08:10:26;;;;;;;;;;;-2.50;73.10;;;;;;5083609;28;19903;-79
2022/01/24 08:12:54;;;;;;;;;;;-2.30;67.00;;;;;;5083449;28;19918;-80
2022/01/24 08:15:20;;;;;;;;;;;-2.20;65.40;;;;;;5065356;28;20433;-80
2022/01/24 08:17:47;;;;;;;;;;;-2.10;63.90;;;;;;5064777;28;19920;-79
2022/01/24 08:20:16;;;;;;;;;;;-1.90;63.70;;;;;;5065314;28;19904;-79
2022/01/24 08:22:42;;;;;;;;;;;-1.00;67.70;;;;;;5083420;28;19947;-80
2022/01/24 08:25:09;;;;;;;;;;;-1.80;66.60;;;;;;5083696;28;20441;-80
2022/01/24 08:27:35;;;;;;;;;;;-0.20;64.90;;;;;;5083466;28;19908;-80
2022/01/24 08:30:03;;;;;;;;;;;-1.80;63.90;;;;;;5083472;28;19908;-80
2022/01/24 08:32:28;;;;;;;;;;;-1.70;65.80;;;;;;5083413;28;20144;-79
2022/01/24 08:34:56;;;;;;;;;;;-1.60;65.20;;;;;;5083230;28;19951;-80
2022/01/24 08:37:22;;;;;;;;;;;-1.40;65.00;;;;;;5083025;28;20001;-80
2022/01/24 08:39:47;;;;;;;;;;;-1.60;62.80;;;;;;5082905;28;20154;-78
2022/01/24 08:42:32;;;;;;;;;;;-1.50;61.60;;;;;;5082663;28;19977;-79
2022/01/24 08:47:25;;;;;;;;;;;-1.20;60.20;;;;;;5083527;28;19914;-80
2022/01/24 08:49:51;;;;;;;;;;;-0.90;58.80;;;;;;5083448;28;19908;-80
2022/01/24 08:52:17;;;;;;;;;;;-0.60;58.00;;;;;;5058871;28;19919;-79
2022/01/24 08:54:43;;;;;;;;;;;-0.40;57.30;;;;;;5076427;28;19908;-80
2022/01/24 08:57:09;;;;;;;;;;;-0.20;55.00;;;;;;5097118;28;19957;-80
2022/01/24 08:59:37;;;;;;;;;;;-0.10;54.20;;;;;;5092502;28;20018;-79
2022/01/24 09:02:03;;;;;;;;;;;0.10;53.70;;;;;;5068334;28;20100;-79
2022/01/24 09:04:30;;;;;;;;;;;0.50;52.50;;;;;;5066471;28;19904;-80
2022/01/24 09:06:57;;;;;;;;;;;0.70;52.40;;;;;;5083912;28;20184;-79
2022/01/24 09:09:23;;;;;;;;;;;0.70;52.40;;;;;;5082807;28;19923;-80
2022/01/24 09:11:49;;;;;;;;;;;0.80;51.00;;;;;;5082928;28;20112;-80
2022/01/24 09:14:16;;;;;;;;;;;0.70;49.50;;;;;;5082676;28;19916;-80
2022/01/24 09:16:42;;;;;;;;;;;0.70;51.10;;;;;;5082505;28;19919;-79
2022/01/24 09:19:08;;;;;;;;;;;0.60;49.90;;;;;;5082552;28;20208;-79
2022/01/24 09:21:35;;;;;;;;;;;-0.60;52.00;;;;;;5064089;28;19942;-79
2022/01/24 09:24:01;;;;;;;;;;;-0.70;54.30;;;;;;5064110;28;19940;-79
2022/01/24 09:26:28;;;;;;;;;;;-0.20;55.20;;;;;;5082950;28;20188;-80
2022/01/24 09:28:54;;;;;;;;;;;-0.50;55.60;;;;;;5083083;28;19911;-79
2022/01/24 09:31:21;;;;;;;;;;;-0.30;54.70;;;;;;5086876;28;19904;-80
2022/01/24 09:33:47;;;;;;;;;;;-0.30;53.10;;;;;;5087211;28;19908;-80
2022/01/24 09:36:15;;;;;;;;;;;0.10;52.50;;;;;;5083016;28;19981;-81
2022/01/24 09:38:41;;;;;;;;;;;0.10;49.80;;;;;;5083034;28;19924;-80
2022/01/24 09:41:07;;;;;;;;;;;0.20;49.50;;;;;;5082205;28;19908;-80
2022/01/24 09:43:33;;;;;;;;;;;1.40;49.70;;;;;;5082663;28;20227;-79
2022/01/24 09:45:59;;;;;;;;;;;1.00;49.50;;;;;;5082374;28;19931;-80
2022/01/24 09:48:25;;;;;;;;;;;0.40;48.50;;;;;;5063556;28;19926;-80
2022/01/24 09:50:52;;;;;;;;;;;0.80;48.90;;;;;;5082338;28;20326;-80
2022/01/24 09:53:19;;;;;;;;;;;1.10;48.70;;;;;;5082722;28;19904;-79
2022/01/24 09:55:44;;;;;;;;;;;1.20;46.50;;;;;;5063721;28;20180;-80
2022/01/24 09:58:10;;;;;;;;;;;1.40;47.20;;;;;;5081814;28;19978;-80
2022/01/24 10:00:37;;;;;;;;;;;1.60;46.50;;;;;;5064022;28;19904;-79
2022/01/24 10:03:12;;;;;;;;;;;1.30;46.20;;;;;;5063724;28;20226;-79
2022/01/24 10:05:39;;;;;;;;;;;1.50;46.40;;;;;;5082728;28;19914;-79
2022/01/24 10:08:05;;;;;;;;;;;1.90;46.30;;;;;;5082585;28;19915;-80
2022/01/24 10:10:46;;;;;;;;;;;2.00;44.10;;;;;;5064520;28;19908;-80
2022/01/24 10:19:07;;;;;;;;;;;1.60;45.20;;;;;;5081173;28;19919;-80
2022/01/24 10:21:40;;;;;;;;;;;1.00;46.30;;;;;;5080455;28;19904;-80
2022/01/24 10:24:06;;;;;;;;;;;-1.90;46.60;;;;;;5081729;28;20019;-80
2022/01/24 10:26:32;;;;;;;;;;;2.90;47.70;;;;;;5080962;28;19975;-80
2022/01/24 10:28:57;;;;;;;;;;;1.20;45.70;;;;;;5081604;28;20390;-79
2022/01/24 10:31:28;;;;;;;;;;;0.70;47.00;;;;;;5062907;28;19904;-80
2022/01/24 10:33:54;;;;;;;;;;;0.50;47.90;;;;;;5081444;28;19995;-80
2022/01/24 10:36:46;;;;;;;;;;;0.10;49.20;;;;;;5062745;28;20004;-80
2022/01/24 10:39:15;;;;;;;;;;;-0.10;52.00;;;;;;5059156;28;19919;-79
2022/01/24 10:42:10;;;;;;;;;;;0.10;52.40;;;;;;5081107;28;19912;-80
2022/01/24 10:44:36;;;;;;;;;;;1.30;54.20;;;;;;5063076;28;19994;-79
2022/01/24 10:47:13;;;;;;;;;;;0.50;50.10;;;;;;5062849;28;20176;-79
2022/01/24 10:49:38;;;;;;;;;;;0.80;50.70;;;;;;5080617;28;20199;-79
2022/01/24 10:52:09;;;;;;;;;;;0.80;49.10;;;;;;5062716;28;19904;-79
2022/01/24 10:54:35;;;;;;;;;;;0.60;48.50;;;;;;5062272;28;20235;-80
2022/01/24 10:57:00;;;;;;;;;;;1.20;51.00;;;;;;5080266;28;19947;-79
2022/01/24 10:59:26;;;;;;;;;;;0.10;49.60;;;;;;5080290;28;20159;-80
2022/01/24 11:01:53;;;;;;;;;;;-0.90;50.00;;;;;;5061896;28;20236;-79
2022/01/24 11:04:20;;;;;;;;;;;-0.10;51.00;;;;;;5080322;28;19915;-80
2022/01/24 11:06:47;;;;;;;;;;;-0.60;49.30;;;;;;5080450;28;20112;-80
2022/01/24 11:09:22;;;;;;;;;;;0.70;49.80;;;;;;5080560;28;19908;-81
2022/01/24 11:11:50;;;;;;;;;;;1.30;47.50;;;;;;5062070;28;20317;-80
2022/01/24 11:14:20;;;;;;;;;;;1.70;46.70;;;;;;5061638;28;19916;-80
2022/01/24 11:16:46;;;;;;;;;;;2.00;45.10;;;;;;5080582;28;19907;-80
2022/01/24 11:19:18;;;;;;;;;;;2.20;45.30;;;;;;5080184;28;19912;-80
2022/01/24 11:21:45;;;;;;;;;;;2.40;45.60;;;;;;5060773;28;20177;-80
2022/01/24 11:24:16;;;;;;;;;;;2.70;44.80;;;;;;5061904;28;20255;-80
2022/01/24 11:26:42;;;;;;;;;;;3.00;45.10;;;;;;5062556;28;19923;-80
2022/01/24 11:29:08;;;;;;;;;;;3.20;44.70;;;;;;5083254;28;19904;-80
2022/01/24 11:31:40;;;;;;;;;;;2.80;43.40;;;;;;5061929;28;19911;-80
2022/01/24 11:34:13;;;;;;;;;;;2.50;44.50;;;;;;5085167;28;20182;-80
2022/01/24 11:36:41;;;;;;;;;;;2.70;43.90;;;;;;5095847;28;19961;-80
2022/01/24 11:39:11;;;;;;;;;;;2.60;43.80;;;;;;5080052;28;19912;-80
2022/01/24 11:41:39;;;;;;;;;;;5.40;46.10;;;;;;5093478;28;19914;-79
2022/01/24 11:44:12;;;;;;;;;;;3.00;43.10;;;;;;5093315;28;19918;-80
2022/01/24 11:46:43;;;;;;;;;;;3.10;43.30;;;;;;5067127;28;20394;-80
2022/01/24 11:49:10;;;;;;;;;;;3.20;43.80;;;;;;5090600;28;19904;-79
2022/01/24 11:51:37;;;;;;;;;;;3.70;43.10;;;;;;5086597;28;20253;-80
2022/01/24 11:54:03;;;;;;;;;;;4.30;42.70;;;;;;5063354;28;20322;-79
2022/01/24 11:56:31;;;;;;;;;;;3.20;43.70;;;;;;5062450;28;19947;-79
2022/01/24 11:59:22;;;;;;;;;;;3.20;44.10;;;;;;5080539;28;19908;-80
2022/01/24 12:02:05;;;;;;;;;;;3.30;42.70;;;;;;5079756;28;20377;-79
2022/01/24 12:04:50;;;;;;;;;;;3.20;43.00;;;;;;5079449;28;19977;-79
2022/01/24 12:07:17;;;;;;;;;;;3.10;42.80;;;;;;5079154;28;20419;-80
2022/01/24 12:09:43;;;;;;;;;;;3.10;44.40;;;;;;5079588;28;19904;-80
2022/01/24 12:12:34;;;;;;;;;;;3.00;44.00;;;;;;5078969;28;19927;-79
2022/01/24 12:15:01;;;;;;;;;;;3.00;44.50;;;;;;5039239;28;20451;-80
2022/01/24 12:17:45;;;;;;;;;;;3.10;44.30;;;;;;5038803;28;19913;-79
2022/01/24 12:20:29;;;;;;;;;;;3.10;43.80;;;;;;5039195;28;19904;-79
2022/01/24 12:22:55;;;;;;;;;;;3.00;43.40;;;;;;5038271;28;20235;-79
2022/01/24 12:25:40;;;;;;;;;;;2.80;44.50;;;;;;5038652;28;20482;-79
2022/01/24 12:28:19;;;;;;;;;;;2.70;45.20;;;;;;5037084;28;19916;-79
2022/01/24 12:31:01;;;;;;;;;;;2.80;43.80;;;;;;5038656;28;19908;-79
2022/01/24 12:33:28;;;;;;;;;;;2.80;44.20;;;;;;5037769;28;19904;-79
2022/01/24 12:35:54;;;;;;;;;;;1.50;44.50;;;;;;5039536;28;19983;-80
2022/01/24 12:38:19;;;;;;;;;;;3.30;45.20;;;;;;5040676;28;20002;-79
2022/01/24 12:40:45;;;;;;;;;;;3.30;43.50;;;;;;5039699;28;19909;-79
2022/01/24 12:43:19;;;;;;;;;;;3.40;43.70;;;;;;5038424;28;19909;-79
2022/01/24 12:48:30;;;;;;;;;;;3.40;43.80;;;;;;5044395;28;19920;-79
2022/01/24 12:50:55;;;;;;;;;;;3.20;44.30;;;;;;5044285;28;20219;-79
2022/01/24 12:53:22;;;;;;;;;;;3.00;44.00;;;;;;5043792;28;19999;-80
2022/01/24 12:55:59;;;;;;;;;;;2.70;44.50;;;;;;5042440;28;20370;-79
2022/01/24 12:58:30;;;;;;;;;;;2.50;44.90;;;;;;5042995;28;19912;-80
2022/01/24 13:00:56;;;;;;;;;;;2.40;44.20;;;;;;5045600;28;19905;-80
2022/01/24 13:03:23;;;;;;;;;;;2.20;46.30;;;;;;5047950;28;19909;-79
2022/01/24 13:05:48;;;;;;;;;;;2.10;45.60;;;;;;5046380;28;19951;-79
2022/01/24 13:08:15;;;;;;;;;;;2.00;45.60;;;;;;5043576;28;19952;-79
2022/01/24 13:10:44;;;;;;;;;;;2.80;46.60;;;;;;5048489;28;19911;-79
2022/01/24 13:13:13;;;;;;;;;;;1.80;46.30;;;;;;5063082;28;19947;-80
2022/01/24 13:21:11;;;;;;;;;;;1.70;48.20;;;;;;5087261;28;20001;-79
2022/01/24 13:23:41;;;;;;;;;;;1.70;48.80;;;;;;5082968;28;19951;-79
2022/01/24 13:26:09;;;;;;;;;;;1.60;47.90;;;;;;5083164;28;19905;-80
2022/01/24 13:28:34;;;;;;;;;;;1.40;47.70;;;;;;5083795;28;19912;-79
2022/01/24 13:31:02;;;;;;;;;;;1.30;48.50;;;;;;5083628;28;19904;-79
2022/01/24 13:33:29;;;;;;;;;;;1.00;49.40;;;;;;5083474;28;19952;-80
2022/01/24 13:36:08;;;;;;;;;;;1.00;50.50;;;;;;5082569;28;19951;-80
2022/01/24 13:38:33;;;;;;;;;;;1.00;51.50;;;;;;5082210;28;20325;-79
2022/01/24 13:41:11;;;;;;;;;;;1.10;49.70;;;;;;5064141;28;20212;-79
2022/01/24 13:43:45;;;;;;;;;;;1.30;48.70;;;;;;5064027;28;19915;-79
2022/01/24 13:46:17;;;;;;;;;;;-1.00;47.50;;;;;;5082492;28;20204;-80
2022/01/24 13:48:50;;;;;;;;;;;1.90;47.80;;;;;;5082668;28;19911;-79
2022/01/24 13:51:38;;;;;;;;;;;2.30;47.40;;;;;;5064573;28;19919;-79
2022/01/24 13:54:05;;;;;;;;;;;2.50;46.00;;;;;;5082441;28;19908;-80
2022/01/24 13:56:31;;;;;;;;;;;2.80;45.00;;;;;;5063039;28;20155;-79
2022/01/24 13:59:01;;;;;;;;;;;3.10;44.00;;;;;;5063997;28;20374;-79
2022/01/24 14:01:26;;;;;;;;;;;3.50;43.50;;;;;;5082959;28;19949;-80
2022/01/24 14:03:59;;;;;;;;;;;3.40;43.40;;;;;;5087509;28;19904;-79
2022/01/24 14:06:30;;;;;;;;;;;3.70;42.80;;;;;;5067022;28;19916;-80
2022/01/24 14:09:06;;;;;;;;;;;3.80;42.90;;;;;;5082777;28;19939;-79
2022/01/24 14:11:32;;;;;;;;;;;3.80;43.60;;;;;;5083063;28;19947;-79
2022/01/24 14:14:08;;;;;;;;;;;4.10;43.40;;;;;;5081523;28;19923;-79
2022/01/24 14:19:05;;;;;;;;;;;3.50;43.20;;;;;;5082339;28;19912;-79
2022/01/24 14:21:35;;;;;;;;;;;3.10;43.10;;;;;;5060423;28;19919;-80
2022/01/24 14:24:01;;;;;;;;;;;2.60;43.90;;;;;;5095539;28;19903;-79
2022/01/24 14:26:28;;;;;;;;;;;2.10;45.60;;;;;;5097630;28;19904;-80
2022/01/24 14:29:07;;;;;;;;;;;1.50;45.90;;;;;;5069729;28;20173;-80
2022/01/24 14:31:33;;;;;;;;;;;1.20;47.20;;;;;;5083920;28;20181;-79
2022/01/24 14:34:01;;;;;;;;;;;0.80;48.30;;;;;;5082347;28;19927;-79
2022/01/24 14:36:27;;;;;;;;;;;0.50;48.70;;;;;;5046187;28;19912;-80
2022/01/24 14:39:00;;;;;;;;;;;0.40;49.60;;;;;;5080601;28;20033;-79
2022/01/24 14:41:30;;;;;;;;;;;0.20;49.90;;;;;;5080857;28;19914;-79
2022/01/24 14:46:42;;;;;;;;;;;-0.20;50.40;;;;;;5080447;28;19973;-79
2022/01/24 14:49:14;;;;;;;;;;;-0.20;51.50;;;;;;5080304;28;19908;-79
2022/01/24 14:51:42;;;;;;;;;;;1.70;51.60;;;;;;5080264;28;19904;-80
2022/01/24 14:54:08;;;;;;;;;;;0.20;49.90;;;;;;5079923;28;20385;-80
2022/01/24 14:56:36;;;;;;;;;;;0.50;48.00;;;;;;5061495;28;19973;-80
2022/01/24 14:59:01;;;;;;;;;;;0.80;48.90;;;;;;5062318;28;19908;-80
2022/01/24 15:01:27;;;;;;;;;;;1.20;47.40;;;;;;5080156;28;20212;-80
2022/01/24 15:03:54;;;;;;;;;;;1.20;45.80;;;;;;5061954;28;19943;-79
2022/01/24 15:06:19;;;;;;;;;;;1.40;46.40;;;;;;5080449;28;19965;-79
2022/01/24 15:08:46;;;;;;;;;;;1.50;46.60;;;;;;5061085;28;20358;-80
2022/01/24 15:11:14;;;;;;;;;;;1.40;46.10;;;;;;5079924;28;20551;-80
2022/01/24 15:13:46;;;;;;;;;;;1.30;46.70;;;;;;5079756;28;19934;-80
2022/01/24 15:16:16;;;;;;;;;;;3.00;47.00;;;;;;5061210;28;19908;-79
2022/01/24 15:27:02;;;;;;;;;;;0.10;50.20;;;;;;5079881;28;20207;-79
2022/01/24 15:29:28;;;;;;;;;;;-0.30;50.40;;;;;;5079839;28;19927;-79
2022/01/24 15:31:55;;;;;;;;;;;-0.70;50.90;;;;;;5079790;28;19903;-79
2022/01/24 15:34:22;;;;;;;;;;;-0.90;52.20;;;;;;5061560;28;20421;-79
2022/01/24 15:36:48;;;;;;;;;;;-1.20;53.70;;;;;;5061210;28;19977;-79
2022/01/24 15:39:14;;;;;;;;;;;0.60;55.80;;;;;;5079542;28;19908;-80
2022/01/24 15:42:00;;;;;;;;;;;-1.10;55.50;;;;;;5079038;28;19912;-79
2022/01/24 15:47:00;;;;;;;;;;;-1.90;58.20;;;;;;5079266;28;19904;-79
2022/01/24 15:49:25;;;;;;;;;;;-2.10;58.70;;;;;;5079335;28;19979;-79
2022/01/24 15:51:51;;;;;;;;;;;-2.30;59.60;;;;;;5079490;28;19995;-79
2022/01/24 15:54:22;;;;;;;;;;;-2.40;60.20;;;;;;5079235;28;20386;-78
2022/01/24 15:59:32;;;;;;;;;;;-1.30;62.00;;;;;;5079738;28;20366;-79
2022/01/24 16:01:58;;;;;;;;;;;-2.10;62.20;;;;;;5079273;28;19939;-79
2022/01/24 16:04:23;;;;;;;;;;;-2.80;63.20;;;;;;5079561;28;19904;-79
2022/01/24 16:06:49;;;;;;;;;;;-2.90;64.80;;;;;;5061102;28;20002;-79
2022/01/24 16:09:15;;;;;;;;;;;-2.70;64.90;;;;;;5079961;28;20386;-79
2022/01/24 16:11:41;;;;;;;;;;;-3.00;65.40;;;;;;5080016;28;19915;-79
2022/01/24 16:14:09;;;;;;;;;;;-3.10;66.00;;;;;;5061255;28;19916;-79
2022/01/24 16:16:36;;;;;;;;;;;-3.10;67.60;;;;;;5079806;28;19908;-79
2022/01/24 16:19:02;;;;;;;;;;;-1.10;68.90;;;;;;5084919;28;20009;-79
2022/01/24 16:21:38;;;;;;;;;;;-3.40;67.90;;;;;;5085694;28;20176;-79
2022/01/24 16:25:20;;;;;;;;;;;-3.40;69.50;;;;;;5084733;28;19904;-79
2022/01/24 16:26:50;;;;;;;;;;;-3.40;69.20;;;;;;5084210;28;20093;-79
2022/01/24 16:29:16;;;;;;;;;;;-3.40;69.70;;;;;;5084440;28;19968;-79
2022/01/24 16:31:43;;;;;;;;;;;-3.50;70.50;;;;;;5065629;28;19908;-79